Time;durP1;ratioP1;P1;durP2;ratioP2;P2;SDS_P1;SDS_P2;PMS_P1;PMS_P2;Temp;Humidity;BMP_temperature;BMP_pressure;BME280_temperature;BME280_humidity;BME280_pressure;Samples;Min_cycle;Max_cycle;Signal;HPM_P1;HPM_P2
2023/08/02 00:00:51;;;;;;;2.20;1.07;;;;;;;;;;5106921;28;20408;-82
2023/08/02 00:03:18;;;;;;;3.07;0.67;;;;;;;;;;5110443;28;20444;-94
2023/08/02 00:05:51;;;;;;;2.30;0.57;;;;;;;;;;5103919;28;20631;-86
2023/08/02 00:08:17;;;;;;;6.40;1.27;;;;;;;;;;5103339;28;20429;-93
2023/08/02 00:10:43;;;;;;;3.50;1.50;;;;;;;;;;5102710;28;20829;-92
2023/08/02 00:13:09;;;;;;;2.40;0.83;;;;;;;;;;5108358;28;20734;-82
2023/08/02 00:15:38;;;;;;;3.17;1.23;;;;;;;;;;5099643;28;20180;-82
2023/08/02 00:18:04;;;;;;;3.93;1.00;;;;;;;;;;5103769;28;20227;-82
2023/08/02 00:20:29;;;;;;;5.10;2.00;;;;;;;;;;5103937;28;20450;-90
2023/08/02 00:22:55;;;;;;;4.13;1.67;;;;;;;;;;5101108;28;20201;-93
2023/08/02 00:25:22;;;;;;;2.50;1.10;;;;;;;;;;5097464;28;20234;-92
2023/08/02 00:27:48;;;;;;;2.93;1.00;;;;;;;;;;5102548;28;20182;-93
2023/08/02 00:30:14;;;;;;;5.03;1.23;;;;;;;;;;5105343;28;20467;-84
2023/08/02 00:32:44;;;;;;;1.90;0.87;;;;;;;;;;5103400;28;20163;-81
2023/08/02 00:35:09;;;;;;;3.40;1.53;;;;;;;;;;5099440;28;20775;-89
2023/08/02 00:37:35;;;;;;;4.80;1.27;;;;;;;;;;5096725;28;20424;-82
2023/08/02 00:40:04;;;;;;;2.53;0.50;;;;;;;;;;5094356;28;20426;-80
2023/08/02 00:42:30;;;;;;;2.20;0.87;;;;;;;;;;5094119;28;20595;-83
2023/08/02 00:44:56;;;;;;;2.37;1.53;;;;;;;;;;5094305;28;20460;-91
2023/08/02 00:47:25;;;;;;;2.60;1.43;;;;;;;;;;5095720;28;20410;-81
2023/08/02 00:49:52;;;;;;;5.17;2.13;;;;;;;;;;5096498;28;20480;-91
2023/08/02 00:52:18;;;;;;;6.23;1.60;;;;;;;;;;5095490;28;20411;-81
2023/08/02 00:54:44;;;;;;;5.80;1.50;;;;;;;;;;5095263;28;20422;-82
2023/08/02 00:57:10;;;;;;;4.30;1.27;;;;;;;;;;5095770;28;20189;-89
2023/08/02 00:59:40;;;;;;;2.47;1.13;;;;;;;;;;5096840;28;20176;-92
2023/08/02 01:02:07;;;;;;;4.13;1.10;;;;;;;;;;5095222;28;20407;-87
2023/08/02 01:04:33;;;;;;;3.73;1.30;;;;;;;;;;5095133;28;20498;-82
2023/08/02 01:07:22;;;;;;;3.13;0.97;;;;;;;;;;5094960;28;20403;-89
2023/08/02 01:09:54;;;;;;;2.70;1.17;;;;;;;;;;5086336;28;20501;-83
2023/08/02 01:12:21;;;;;;;3.40;1.13;;;;;;;;;;5093832;28;20933;-82
2023/08/02 01:14:50;;;;;;;2.30;1.47;;;;;;;;;;5094605;28;20421;-92
2023/08/02 01:17:16;;;;;;;5.97;1.60;;;;;;;;;;5095485;28;20767;-92
2023/08/02 01:19:45;;;;;;;3.57;1.40;;;;;;;;;;5094650;28;20422;-82
2023/08/02 01:22:11;;;;;;;4.20;1.50;;;;;;;;;;5093189;28;20417;-84
2023/08/02 01:24:37;;;;;;;2.33;1.33;;;;;;;;;;5093385;28;20500;-92
2023/08/02 01:27:06;;;;;;;5.23;1.60;;;;;;;;;;5093600;28;20424;-91
2023/08/02 01:29:32;;;;;;;4.70;1.27;;;;;;;;;;5094050;28;20972;-82
2023/08/02 01:31:59;;;;;;;2.13;1.43;;;;;;;;;;5094018;28;20929;-81
2023/08/02 01:34:26;;;;;;;4.10;2.37;;;;;;;;;;5094100;28;21000;-81
2023/08/02 01:36:52;;;;;;;2.63;1.20;;;;;;;;;;5092737;28;20430;-81
2023/08/02 01:39:18;;;;;;;5.27;1.60;;;;;;;;;;5094188;28;20421;-82
2023/08/02 01:41:44;;;;;;;4.97;2.00;;;;;;;;;;5094219;28;20814;-82
2023/08/02 01:44:10;;;;;;;3.60;1.80;;;;;;;;;;5092580;28;20498;-87
2023/08/02 01:46:35;;;;;;;3.83;2.03;;;;;;;;;;5094172;28;20419;-93
2023/08/02 01:49:01;;;;;;;6.33;1.67;;;;;;;;;;5092867;28;20182;-80
2023/08/02 01:51:27;;;;;;;4.13;1.33;;;;;;;;;;5094500;28;20179;-80
2023/08/02 01:53:53;;;;;;;5.10;1.90;;;;;;;;;;5095534;28;20724;-94
2023/08/02 01:56:19;;;;;;;5.67;1.97;;;;;;;;;;5098639;28;20241;-88
2023/08/02 01:58:45;;;;;;;5.97;2.17;;;;;;;;;;5096063;28;20409;-86
2023/08/02 02:01:11;;;;;;;4.20;2.83;;;;;;;;;;5096754;28;20174;-82
2023/08/02 02:03:37;;;;;;;7.43;2.20;;;;;;;;;;5096330;28;20425;-82
2023/08/02 02:06:03;;;;;;;4.13;2.20;;;;;;;;;;5094042;28;20635;-82
2023/08/02 02:08:29;;;;;;;5.90;1.93;;;;;;;;;;5100464;28;20185;-91
2023/08/02 02:10:55;;;;;;;4.87;1.97;;;;;;;;;;5092473;28;20472;-81
2023/08/02 02:13:22;;;;;;;4.70;2.13;;;;;;;;;;5083508;28;20182;-86
2023/08/02 02:15:48;;;;;;;3.73;2.17;;;;;;;;;;5084301;28;20416;-90
2023/08/02 02:18:14;;;;;;;3.37;2.30;;;;;;;;;;5084188;28;20421;-81
2023/08/02 02:20:39;;;;;;;4.00;1.97;;;;;;;;;;5082371;28;20980;-82
2023/08/02 02:23:05;;;;;;;6.83;1.93;;;;;;;;;;5086537;28;20423;-88
2023/08/02 02:25:31;;;;;;;4.73;1.77;;;;;;;;;;5081606;28;20172;-83
2023/08/02 02:27:57;;;;;;;3.80;1.43;;;;;;;;;;5081719;28;20442;-81
2023/08/02 02:30:23;;;;;;;4.40;1.80;;;;;;;;;;5083585;28;20477;-84
2023/08/02 02:32:49;;;;;;;3.70;1.50;;;;;;;;;;5083923;28;20412;-90
2023/08/02 02:35:15;;;;;;;4.70;2.10;;;;;;;;;;5084788;28;20405;-82
2023/08/02 02:37:42;;;;;;;4.57;1.60;;;;;;;;;;5074690;28;20536;-83
2023/08/02 02:40:08;;;;;;;3.00;1.43;;;;;;;;;;5075336;28;20414;-81
2023/08/02 02:42:34;;;;;;;2.83;2.00;;;;;;;;;;5073541;28;20876;-82
2023/08/02 02:45:00;;;;;;;4.33;2.07;;;;;;;;;;5072047;28;20426;-85
2023/08/02 02:47:26;;;;;;;5.37;1.97;;;;;;;;;;5086412;28;20422;-94
2023/08/02 02:49:55;;;;;;;2.13;1.50;;;;;;;;;;5087374;28;20474;-91
2023/08/02 02:52:21;;;;;;;4.97;1.80;;;;;;;;;;5074848;28;20415;-83
2023/08/02 02:54:47;;;;;;;6.73;2.50;;;;;;;;;;5072825;28;20430;-83
2023/08/02 02:57:15;;;;;;;4.20;1.87;;;;;;;;;;5086628;28;20411;-90
2023/08/02 02:59:41;;;;;;;4.80;2.20;;;;;;;;;;5092685;28;20203;-86
2023/08/02 03:02:09;;;;;;;4.10;2.50;;;;;;;;;;5089046;28;20409;-82
2023/08/02 03:04:35;;;;;;;4.23;2.27;;;;;;;;;;5084000;28;20518;-84
2023/08/02 03:07:14;;;;;;;6.20;3.23;;;;;;;;;;5085752;28;20400;-82
2023/08/02 03:09:39;;;;;;;4.20;2.40;;;;;;;;;;5087307;28;20505;-84
2023/08/02 03:12:06;;;;;;;3.87;2.27;;;;;;;;;;5074931;28;20440;-82
2023/08/02 03:14:31;;;;;;;5.37;2.90;;;;;;;;;;5070412;28;20218;-82
2023/08/02 03:16:57;;;;;;;5.20;2.20;;;;;;;;;;5073266;28;20513;-92
2023/08/02 03:19:23;;;;;;;4.23;2.17;;;;;;;;;;5076746;28;20600;-88
2023/08/02 03:21:49;;;;;;;5.80;2.80;;;;;;;;;;5075167;28;20179;-82
2023/08/02 03:24:15;;;;;;;4.53;3.27;;;;;;;;;;5074803;28;20418;-92
2023/08/02 03:26:41;;;;;;;8.13;3.67;;;;;;;;;;5075065;28;20419;-81
2023/08/02 03:29:07;;;;;;;6.47;3.23;;;;;;;;;;5076040;28;20414;-83
2023/08/02 03:31:33;;;;;;;5.67;3.80;;;;;;;;;;5075986;28;20218;-91
2023/08/02 03:33:59;;;;;;;7.87;3.53;;;;;;;;;;5074850;28;20414;-81
2023/08/02 03:36:27;;;;;;;6.80;3.73;;;;;;;;;;5074614;28;20619;-81
2023/08/02 03:38:53;;;;;;;5.13;3.50;;;;;;;;;;5074622;28;20419;-81
2023/08/02 03:41:19;;;;;;;6.80;4.17;;;;;;;;;;5075990;28;20778;-82
2023/08/02 03:43:45;;;;;;;5.03;4.20;;;;;;;;;;5074217;28;20465;-81
2023/08/02 03:46:11;;;;;;;6.67;4.60;;;;;;;;;;5074676;28;20424;-84
2023/08/02 03:48:37;;;;;;;4.40;3.90;;;;;;;;;;5076089;28;20529;-92
2023/08/02 03:51:03;;;;;;;8.40;3.10;;;;;;;;;;5076266;28;20469;-85
2023/08/02 03:53:30;;;;;;;8.40;4.90;;;;;;;;;;5075629;28;20413;-83
2023/08/02 03:55:56;;;;;;;5.00;3.60;;;;;;;;;;5076015;28;20479;-83
2023/08/02 03:58:22;;;;;;;9.50;4.77;;;;;;;;;;5075200;28;20805;-82
2023/08/02 04:00:48;;;;;;;7.73;3.70;;;;;;;;;;5075342;28;20464;-82
2023/08/02 04:03:14;;;;;;;6.50;3.90;;;;;;;;;;5075562;28;20415;-83
2023/08/02 04:05:40;;;;;;;4.60;3.50;;;;;;;;;;5075434;28;20414;-83
2023/08/02 04:08:06;;;;;;;5.43;4.50;;;;;;;;;;5074321;28;20540;-82
2023/08/02 04:10:38;;;;;;;5.50;4.30;;;;;;;;;;5075400;28;21016;-82
2023/08/02 04:13:04;;;;;;;8.60;5.50;;;;;;;;;;5074895;28;20166;-86
2023/08/02 04:15:31;;;;;;;7.07;4.97;;;;;;;;;;5074270;28;20430;-83
2023/08/02 04:17:57;;;;;;;7.07;5.53;;;;;;;;;;5075420;28;20434;-89
2023/08/02 04:20:23;;;;;;;8.20;5.40;;;;;;;;;;5075219;28;20464;-88
2023/08/02 04:22:49;;;;;;;14.10;6.33;;;;;;;;;;5075049;28;20656;-81
2023/08/02 04:25:18;;;;;;;6.40;5.43;;;;;;;;;;5075235;28;20170;-81
2023/08/02 04:27:44;;;;;;;7.17;5.33;;;;;;;;;;5074459;28;20732;-84
2023/08/02 04:30:10;;;;;;;9.90;5.53;;;;;;;;;;5074416;28;20471;-84
2023/08/02 04:32:36;;;;;;;7.87;5.00;;;;;;;;;;5075593;28;20168;-90
2023/08/02 04:35:02;;;;;;;8.20;5.13;;;;;;;;;;5073271;28;20943;-83
2023/08/02 04:37:29;;;;;;;10.03;5.53;;;;;;;;;;5074643;28;20167;-83
2023/08/02 04:39:55;;;;;;;7.53;5.43;;;;;;;;;;5074372;28;20397;-83
2023/08/02 04:42:21;;;;;;;8.57;5.77;;;;;;;;;;5074291;28;20891;-84
2023/08/02 04:44:47;;;;;;;8.27;4.77;;;;;;;;;;5074168;28;20490;-84
2023/08/02 04:47:12;;;;;;;8.57;6.07;;;;;;;;;;5074337;28;20267;-82
2023/08/02 04:49:38;;;;;;;9.50;5.90;;;;;;;;;;5074310;28;20466;-83
2023/08/02 04:52:05;;;;;;;8.37;6.30;;;;;;;;;;5074239;28;20410;-83
2023/08/02 04:54:30;;;;;;;6.83;5.30;;;;;;;;;;5074162;28;20257;-84
2023/08/02 04:56:56;;;;;;;6.90;5.80;;;;;;;;;;5072965;28;20629;-84
2023/08/02 04:59:24;;;;;;;6.20;5.60;;;;;;;;;;5072450;28;20476;-84
2023/08/02 05:01:50;;;;;;;7.17;4.63;;;;;;;;;;5074050;28;20178;-83
2023/08/02 05:04:15;;;;;;;8.37;4.83;;;;;;;;;;5074025;28;20408;-85
2023/08/02 05:06:42;;;;;;;9.13;5.87;;;;;;;;;;5074016;28;20191;-84
2023/08/02 05:09:08;;;;;;;5.53;4.40;;;;;;;;;;5072598;28;20421;-84
2023/08/02 05:11:36;;;;;;;7.90;5.27;;;;;;;;;;5073830;28;20427;-84
2023/08/02 05:14:02;;;;;;;6.77;5.17;;;;;;;;;;5073511;28;20420;-84
2023/08/02 05:16:30;;;;;;;4.77;4.20;;;;;;;;;;5073795;28;20419;-84
2023/08/02 05:18:56;;;;;;;7.10;5.07;;;;;;;;;;5072462;28;20188;-84
2023/08/02 05:21:25;;;;;;;6.53;4.03;;;;;;;;;;5072325;28;20428;-83
2023/08/02 05:23:51;;;;;;;8.10;4.93;;;;;;;;;;5072359;28;20181;-83
2023/08/02 05:26:17;;;;;;;8.70;4.20;;;;;;;;;;5072310;28;20909;-83
2023/08/02 05:28:43;;;;;;;8.70;5.47;;;;;;;;;;5073363;28;20415;-83
2023/08/02 05:31:10;;;;;;;8.10;4.33;;;;;;;;;;5072127;28;20496;-83
2023/08/02 05:33:36;;;;;;;7.53;4.93;;;;;;;;;;5072197;28;20471;-84
2023/08/02 05:36:02;;;;;;;9.57;5.17;;;;;;;;;;5073762;28;20419;-82
2023/08/02 05:38:30;;;;;;;5.10;4.40;;;;;;;;;;5073506;28;20408;-83
2023/08/02 05:40:56;;;;;;;8.10;4.70;;;;;;;;;;5072747;28;20450;-82
2023/08/02 05:43:22;;;;;;;9.33;5.03;;;;;;;;;;5072913;28;20463;-83
2023/08/02 05:45:52;;;;;;;7.60;4.53;;;;;;;;;;5073567;28;20169;-82
2023/08/02 05:48:18;;;;;;;9.00;4.80;;;;;;;;;;5072359;28;20213;-84
2023/08/02 05:50:44;;;;;;;8.60;4.70;;;;;;;;;;5072250;28;20512;-86
2023/08/02 05:53:10;;;;;;;4.77;4.27;;;;;;;;;;5072181;28;20413;-85
2023/08/02 05:55:36;;;;;;;5.63;3.80;;;;;;;;;;5073381;28;20186;-89
2023/08/02 05:58:02;;;;;;;10.40;4.53;;;;;;;;;;5073143;28;20202;-88
2023/08/02 06:00:28;;;;;;;6.97;4.97;;;;;;;;;;5072301;28;20701;-83
2023/08/02 06:02:54;;;;;;;6.60;4.47;;;;;;;;;;5073524;28;20442;-83
2023/08/02 06:05:19;;;;;;;6.10;3.23;;;;;;;;;;5073532;28;20266;-88
2023/08/02 06:07:45;;;;;;;4.23;3.83;;;;;;;;;;5073419;28;20527;-87
2023/08/02 06:10:11;;;;;;;5.90;4.00;;;;;;;;;;5072154;28;20216;-88
2023/08/02 06:12:37;;;;;;;6.20;3.50;;;;;;;;;;5072902;28;20280;-83
2023/08/02 06:15:03;;;;;;;6.97;2.87;;;;;;;;;;5071963;28;20539;-84
2023/08/02 06:17:30;;;;;;;6.57;4.03;;;;;;;;;;5073456;28;20224;-88
2023/08/02 06:19:56;;;;;;;8.90;3.93;;;;;;;;;;5073198;28;20781;-83
2023/08/02 06:22:22;;;;;;;5.10;2.40;;;;;;;;;;5073339;28;20418;-85
2023/08/02 06:24:48;;;;;;;3.63;2.30;;;;;;;;;;5073376;28;20254;-90
2023/08/02 06:27:14;;;;;;;4.70;2.50;;;;;;;;;;5073178;28;20251;-82
2023/08/02 06:29:43;;;;;;;6.13;3.10;;;;;;;;;;5072802;28;20467;-82
2023/08/02 06:32:09;;;;;;;3.10;2.10;;;;;;;;;;5072999;28;20708;-87
2023/08/02 06:34:34;;;;;;;6.70;2.40;;;;;;;;;;5072979;28;20427;-83
2023/08/02 06:37:00;;;;;;;5.73;1.70;;;;;;;;;;5072968;28;20201;-85
2023/08/02 06:39:26;;;;;;;5.13;2.10;;;;;;;;;;5072955;28;20645;-85
2023/08/02 06:41:52;;;;;;;4.63;1.67;;;;;;;;;;5072811;28;20203;-87
2023/08/02 06:44:18;;;;;;;3.20;1.77;;;;;;;;;;5072510;28;20490;-85
2023/08/02 06:46:44;;;;;;;4.00;1.00;;;;;;;;;;5071892;28;20179;-86
2023/08/02 06:49:10;;;;;;;7.87;1.40;;;;;;;;;;5072847;28;20429;-83
2023/08/02 06:51:36;;;;;;;7.23;1.43;;;;;;;;;;5074656;28;20460;-86
2023/08/02 06:54:02;;;;;;;4.57;1.20;;;;;;;;;;5075651;28;20182;-81
2023/08/02 06:56:28;;;;;;;5.83;2.03;;;;;;;;;;5076987;28;20415;-82
2023/08/02 06:58:54;;;;;;;6.00;2.43;;;;;;;;;;5076422;28;20503;-84
2023/08/02 07:01:20;;;;;;;8.60;2.30;;;;;;;;;;5075507;28;20195;-87
2023/08/02 07:03:47;;;;;;;6.10;1.77;;;;;;;;;;5076908;28;20887;-80
2023/08/02 07:06:13;;;;;;;4.90;1.60;;;;;;;;;;5075199;28;20990;-81
2023/08/02 07:08:43;;;;;;;5.20;3.33;;;;;;;;;;5076504;28;20473;-81
2023/08/02 07:11:09;;;;;;;5.87;1.40;;;;;;;;;;5076515;28;20473;-84
2023/08/02 07:13:36;;;;;;;5.47;1.77;;;;;;;;;;5075539;28;20434;-84
2023/08/02 07:16:02;;;;;;;6.20;1.63;;;;;;;;;;5078956;28;20418;-94
2023/08/02 07:18:28;;;;;;;4.60;1.70;;;;;;;;;;5078102;28;20513;-93
2023/08/02 07:20:54;;;;;;;5.33;2.20;;;;;;;;;;5087885;28;20419;-92
2023/08/02 07:23:21;;;;;;;5.20;1.20;;;;;;;;;;5087541;28;20411;-91
2023/08/02 07:25:47;;;;;;;5.37;1.47;;;;;;;;;;5083325;28;20411;-88
2023/08/02 07:28:12;;;;;;;5.73;1.17;;;;;;;;;;5083258;28;20910;-81
2023/08/02 07:30:38;;;;;;;5.80;2.03;;;;;;;;;;5078573;28;20265;-88
2023/08/02 07:33:04;;;;;;;4.47;2.07;;;;;;;;;;5076858;28;20230;-84
2023/08/02 07:35:30;;;;;;;4.33;2.13;;;;;;;;;;5076476;28;20169;-81
2023/08/02 07:37:56;;;;;;;4.40;1.57;;;;;;;;;;5077073;28;20406;-86
2023/08/02 07:40:22;;;;;;;7.20;1.60;;;;;;;;;;5076967;28;20172;-91
2023/08/02 07:42:48;;;;;;;7.43;2.20;;;;;;;;;;5076239;28;20694;-88
2023/08/02 07:45:14;;;;;;;5.30;2.37;;;;;;;;;;5076689;28;20171;-91
2023/08/02 07:47:40;;;;;;;12.63;2.40;;;;;;;;;;5075018;28;20241;-80
2023/08/02 07:50:06;;;;;;;5.00;1.93;;;;;;;;;;5075774;28;20262;-82
2023/08/02 07:52:34;;;;;;;7.00;2.13;;;;;;;;;;5075477;28;20426;-80
2023/08/02 07:55:00;;;;;;;5.57;1.87;;;;;;;;;;5075521;28;20454;-81
2023/08/02 07:57:27;;;;;;;5.63;1.97;;;;;;;;;;5073813;28;20417;-81
2023/08/02 07:59:53;;;;;;;6.73;2.53;;;;;;;;;;5075279;28;20249;-81
2023/08/02 08:02:20;;;;;;;7.37;1.40;;;;;;;;;;5074775;28;20432;-82
2023/08/02 08:04:48;;;;;;;6.83;1.70;;;;;;;;;;5074945;28;20772;-81
2023/08/02 08:07:14;;;;;;;7.03;2.50;;;;;;;;;;5075066;28;20405;-83
2023/08/02 08:09:40;;;;;;;6.53;1.80;;;;;;;;;;5075172;28;20465;-81
2023/08/02 08:12:06;;;;;;;4.50;1.33;;;;;;;;;;5075129;28;20187;-82
2023/08/02 08:14:33;;;;;;;5.47;1.73;;;;;;;;;;5074828;28;20186;-81
2023/08/02 08:16:59;;;;;;;8.37;1.60;;;;;;;;;;5075435;28;20414;-81
2023/08/02 08:19:28;;;;;;;5.67;1.93;;;;;;;;;;5075399;28;20904;-81
2023/08/02 08:21:55;;;;;;;6.77;1.60;;;;;;;;;;5074993;28;20517;-82
2023/08/02 08:24:21;;;;;;;6.00;1.43;;;;;;;;;;5074916;28;20423;-83
2023/08/02 08:26:47;;;;;;;7.23;1.70;;;;;;;;;;5073587;28;20415;-81
2023/08/02 08:29:13;;;;;;;3.67;1.03;;;;;;;;;;5074440;28;20473;-81
2023/08/02 08:31:39;;;;;;;10.20;2.20;;;;;;;;;;5074752;28;20461;-82
2023/08/02 08:34:05;;;;;;;4.20;1.80;;;;;;;;;;5074926;28;20402;-81
2023/08/02 08:36:31;;;;;;;9.40;2.00;;;;;;;;;;5074694;28;20414;-82
2023/08/02 08:38:57;;;;;;;5.07;3.17;;;;;;;;;;5073506;28;20506;-81
2023/08/02 08:41:23;;;;;;;7.80;1.90;;;;;;;;;;5074622;28;20502;-81
2023/08/02 08:43:49;;;;;;;3.97;0.80;;;;;;;;;;5074070;28;20459;-81
2023/08/02 08:46:15;;;;;;;3.83;1.20;;;;;;;;;;5074583;28;20412;-90
2023/08/02 08:48:41;;;;;;;3.87;0.93;;;;;;;;;;5074506;28;20447;-86
2023/08/02 08:51:09;;;;;;;4.57;1.73;;;;;;;;;;5073339;28;20485;-86
2023/08/02 08:53:37;;;;;;;3.63;0.90;;;;;;;;;;5074713;28;20510;-84
2023/08/02 08:56:04;;;;;;;6.00;2.00;;;;;;;;;;5074715;28;20399;-84
2023/08/02 08:58:32;;;;;;;4.27;1.40;;;;;;;;;;5074495;28;20411;-88
2023/08/02 09:00:58;;;;;;;5.63;1.20;;;;;;;;;;5074929;28;20832;-89
2023/08/02 09:03:24;;;;;;;5.60;1.47;;;;;;;;;;5075089;28;20801;-83
2023/08/02 09:05:51;;;;;;;5.77;1.70;;;;;;;;;;5075495;28;20407;-85
2023/08/02 09:08:16;;;;;;;5.73;1.63;;;;;;;;;;5078093;28;20458;-91
2023/08/02 09:10:42;;;;;;;6.50;1.97;;;;;;;;;;5081956;28;20470;-94
2023/08/02 09:13:27;;;;;;;5.50;1.83;;;;;;;;;;5082286;28;20387;-86
2023/08/02 09:16:05;;;;;;;7.50;2.03;;;;;;;;;;5083478;28;20412;-91
2023/08/02 09:18:35;;;;;;;5.03;1.77;;;;;;;;;;5080760;28;20413;-84
2023/08/02 09:21:01;;;;;;;3.67;1.80;;;;;;;;;;5077074;28;20419;-89
2023/08/02 09:23:27;;;;;;;4.10;1.70;;;;;;;;;;5075995;28;20774;-92
2023/08/02 09:25:52;;;;;;;4.70;2.00;;;;;;;;;;5075197;28;20184;-93
2023/08/02 09:28:18;;;;;;;5.37;1.70;;;;;;;;;;5074213;28;20970;-85
2023/08/02 09:30:44;;;;;;;5.53;2.87;;;;;;;;;;5075643;28;20210;-91
2023/08/02 09:33:10;;;;;;;6.53;1.93;;;;;;;;;;5079545;28;20175;-91
2023/08/02 09:35:48;;;;;;;6.70;1.73;;;;;;;;;;5079033;28;20263;-94
2023/08/02 09:38:16;;;;;;;2.27;1.60;;;;;;;;;;5079683;28;20271;-93
2023/08/02 09:40:42;;;;;;;5.30;2.60;;;;;;;;;;5082623;28;20411;-92
2023/08/02 09:43:11;;;;;;;4.90;1.70;;;;;;;;;;5081344;28;20469;-82
2023/08/02 09:45:37;;;;;;;4.77;2.30;;;;;;;;;;5078016;28;20490;-93
2023/08/02 09:48:03;;;;;;;3.70;1.50;;;;;;;;;;5074581;28;20432;-83
2023/08/02 09:50:31;;;;;;;4.60;1.70;;;;;;;;;;5073957;28;20218;-92
2023/08/02 09:52:57;;;;;;;4.17;2.27;;;;;;;;;;5074076;28;20813;-93
2023/08/02 09:55:24;;;;;;;7.17;1.90;;;;;;;;;;5075260;28;20918;-90
2023/08/02 09:57:50;;;;;;;3.70;1.83;;;;;;;;;;5074593;28;20418;-91
2023/08/02 10:00:17;;;;;;;6.57;1.67;;;;;;;;;;5074824;28;20413;-89
2023/08/02 10:02:43;;;;;;;6.63;1.50;;;;;;;;;;5074627;28;20470;-88
2023/08/02 10:05:13;;;;;;;4.13;2.13;;;;;;;;;;5076886;28;20460;-84
2023/08/02 10:07:41;;;;;;;2.60;1.40;;;;;;;;;;5078085;28;20763;-88
2023/08/02 10:10:12;;;;;;;3.47;1.70;;;;;;;;;;5074608;28;20462;-92
2023/08/02 10:12:39;;;;;;;5.80;1.70;;;;;;;;;;5075535;28;20412;-92
2023/08/02 10:15:05;;;;;;;9.17;1.97;;;;;;;;;;5075067;28;20433;-85
2023/08/02 10:17:31;;;;;;;3.87;1.70;;;;;;;;;;5077340;28;20479;-90
2023/08/02 10:20:01;;;;;;;5.80;1.13;;;;;;;;;;5076491;28;20441;-89
2023/08/02 10:22:27;;;;;;;3.80;1.43;;;;;;;;;;5080106;28;20773;-93
2023/08/02 10:24:53;;;;;;;5.43;3.00;;;;;;;;;;5077196;28;20486;-88
2023/08/02 10:27:20;;;;;;;6.50;2.50;;;;;;;;;;5080572;28;20407;-83
2023/08/02 10:29:46;;;;;;;2.73;1.70;;;;;;;;;;5082143;28;20474;-89
2023/08/02 10:32:13;;;;;;;3.83;1.57;;;;;;;;;;5080575;28;20419;-81
2023/08/02 10:34:39;;;;;;;3.50;1.50;;;;;;;;;;5082022;28;20438;-86
2023/08/02 10:37:05;;;;;;;6.60;1.97;;;;;;;;;;5079410;28;20518;-90
2023/08/02 10:39:46;;;;;;;4.53;1.77;;;;;;;;;;5081885;28;20322;-88
2023/08/02 10:42:16;;;;;;;6.57;2.83;;;;;;;;;;5083045;28;20993;-86
2023/08/02 10:44:57;;;;;;;4.87;1.07;;;;;;;;;;5080394;28;20420;-86
2023/08/02 10:47:33;;;;;;;4.87;1.57;;;;;;;;;;5079959;28;20548;-81
2023/08/02 10:50:00;;;;;;;4.60;1.40;;;;;;;;;;5079195;28;20560;-80
2023/08/02 10:52:27;;;;;;;4.70;2.10;;;;;;;;;;5079310;28;20423;-81
2023/08/02 10:55:12;;;;;;;4.30;1.87;;;;;;;;;;5079222;28;20397;-81
2023/08/02 10:57:39;;;;;;;3.70;1.37;;;;;;;;;;5078936;28;20420;-83
2023/08/02 11:00:15;;;;;;;3.53;1.20;;;;;;;;;;5079231;28;20550;-79
2023/08/02 11:02:46;;;;;;;3.90;2.13;;;;;;;;;;5079690;28;20492;-83
2023/08/02 11:05:12;;;;;;;5.40;1.33;;;;;;;;;;5079700;28;20403;-86
2023/08/02 11:07:37;;;;;;;4.63;1.27;;;;;;;;;;5079125;28;20411;-85
2023/08/02 11:10:07;;;;;;;7.87;1.23;;;;;;;;;;5079772;28;20939;-87
2023/08/02 11:12:34;;;;;;;4.57;1.17;;;;;;;;;;5079809;28;20418;-81
2023/08/02 11:15:00;;;;;;;2.07;0.97;;;;;;;;;;5079202;28;20425;-82
2023/08/02 11:17:26;;;;;;;4.20;1.17;;;;;;;;;;5079083;28;20970;-82
2023/08/02 11:19:53;;;;;;;5.90;1.77;;;;;;;;;;5079078;28;20252;-80
2023/08/02 11:22:19;;;;;;;2.90;1.30;;;;;;;;;;5079027;28;20178;-82
2023/08/02 11:24:46;;;;;;;3.67;1.30;;;;;;;;;;5078070;28;20408;-86
2023/08/02 11:27:19;;;;;;;4.93;1.10;;;;;;;;;;5079260;28;20408;-83
2023/08/02 11:29:58;;;;;;;2.47;1.00;;;;;;;;;;5079679;28;20465;-80
2023/08/02 11:32:24;;;;;;;6.30;1.47;;;;;;;;;;5078578;28;20407;-82
2023/08/02 11:34:50;;;;;;;2.00;0.87;;;;;;;;;;5080008;28;20927;-84
2023/08/02 11:37:16;;;;;;;3.30;0.93;;;;;;;;;;5078581;28;20415;-88
2023/08/02 11:39:54;;;;;;;3.80;0.90;;;;;;;;;;5076668;28;20462;-87
2023/08/02 11:42:21;;;;;;;3.57;0.90;;;;;;;;;;5076095;28;20492;-86
2023/08/02 11:44:46;;;;;;;5.63;1.30;;;;;;;;;;5076279;28;20418;-82
2023/08/02 11:47:12;;;;;;;2.77;0.90;;;;;;;;;;5076781;28;20933;-85
2023/08/02 11:49:52;;;;;;;3.47;0.70;;;;;;;;;;5076184;28;20819;-83
2023/08/02 11:52:25;;;;;;;2.83;0.93;;;;;;;;;;5076405;28;20215;-85
2023/08/02 11:54:52;;;;;;;3.27;1.10;;;;;;;;;;5075961;28;20490;-86
2023/08/02 11:57:18;;;;;;;3.47;1.10;;;;;;;;;;5078039;28;20412;-87
2023/08/02 11:59:46;;;;;;;3.50;1.30;;;;;;;;;;5076105;28;20402;-81
2023/08/02 12:02:29;;;;;;;3.17;0.97;;;;;;;;;;5076662;28;20402;-80
2023/08/02 12:04:56;;;;;;;3.70;0.97;;;;;;;;;;5075300;28;20407;-78
2023/08/02 12:07:28;;;;;;;2.67;0.73;;;;;;;;;;5075473;28;20422;-81
2023/08/02 12:09:55;;;;;;;4.93;1.27;;;;;;;;;;5075618;28;20446;-87
2023/08/02 12:12:21;;;;;;;4.70;0.80;;;;;;;;;;5075057;28;20514;-81
2023/08/02 12:14:47;;;;;;;4.37;1.60;;;;;;;;;;5075184;28;20754;-82
2023/08/02 12:17:17;;;;;;;3.63;1.40;;;;;;;;;;5075049;28;20415;-87
2023/08/02 12:19:43;;;;;;;3.07;1.87;;;;;;;;;;5075066;28;20176;-86
2023/08/02 12:22:09;;;;;;;1.87;1.30;;;;;;;;;;5074986;28;20780;-86
2023/08/02 12:24:35;;;;;;;2.43;2.00;;;;;;;;;;5075002;28;20173;-81
2023/08/02 12:27:17;;;;;;;3.50;0.90;;;;;;;;;;5074472;28;20406;-81
2023/08/02 12:29:44;;;;;;;3.80;1.37;;;;;;;;;;5074736;28;20465;-82
2023/08/02 12:32:11;;;;;;;1.97;1.00;;;;;;;;;;5074736;28;20414;-88
2023/08/02 12:34:37;;;;;;;2.63;1.10;;;;;;;;;;5080348;28;20418;-81
2023/08/02 12:37:04;;;;;;;1.93;1.00;;;;;;;;;;5080109;28;20409;-87
2023/08/02 12:39:30;;;;;;;6.50;1.37;;;;;;;;;;5078117;28;20768;-82
2023/08/02 12:41:55;;;;;;;4.70;1.30;;;;;;;;;;5077447;28;20410;-89
2023/08/02 12:44:21;;;;;;;3.13;1.20;;;;;;;;;;5075269;28;20182;-81
2023/08/02 12:46:48;;;;;;;2.80;1.30;;;;;;;;;;5074496;28;20621;-83
2023/08/02 12:49:14;;;;;;;2.43;0.90;;;;;;;;;;5074034;28;20400;-78
2023/08/02 12:51:39;;;;;;;3.73;0.80;;;;;;;;;;5074340;28;20421;-79
2023/08/02 12:54:06;;;;;;;5.07;1.60;;;;;;;;;;5074265;28;20667;-80
2023/08/02 12:56:33;;;;;;;3.43;1.00;;;;;;;;;;5073937;28;20421;-79
2023/08/02 12:58:59;;;;;;;4.30;1.37;;;;;;;;;;5074230;28;20632;-80
2023/08/02 13:01:25;;;;;;;4.33;1.13;;;;;;;;;;5074309;28;20408;-84
2023/08/02 13:03:50;;;;;;;5.30;2.33;;;;;;;;;;5072968;28;20768;-83
2023/08/02 13:06:16;;;;;;;3.53;1.10;;;;;;;;;;5074322;28;20173;-85
2023/08/02 13:08:42;;;;;;;2.40;1.90;;;;;;;;;;5074324;28;20409;-84
2023/08/02 13:11:08;;;;;;;3.70;1.50;;;;;;;;;;5074196;28;20220;-85
2023/08/02 13:13:34;;;;;;;4.30;1.60;;;;;;;;;;5073904;28;20621;-89
2023/08/02 13:16:00;;;;;;;4.10;1.57;;;;;;;;;;5074471;28;20176;-85
2023/08/02 13:18:26;;;;;;;3.07;1.70;;;;;;;;;;5074090;28;20643;-84
2023/08/02 13:20:52;;;;;;;3.50;2.03;;;;;;;;;;5073831;28;20173;-86
2023/08/02 13:23:18;;;;;;;2.67;1.47;;;;;;;;;;5073783;28;20171;-86
2023/08/02 13:25:43;;;;;;;5.03;2.80;;;;;;;;;;5073715;28;20479;-82
2023/08/02 13:28:09;;;;;;;3.67;2.13;;;;;;;;;;5071986;28;20766;-85
2023/08/02 13:30:35;;;;;;;5.30;1.70;;;;;;;;;;5072491;28;20230;-85
2023/08/02 13:33:01;;;;;;;2.70;1.83;;;;;;;;;;5073572;28;20490;-89
2023/08/02 13:35:27;;;;;;;4.43;2.10;;;;;;;;;;5073729;28;20413;-83
2023/08/02 13:37:53;;;;;;;2.60;1.57;;;;;;;;;;5086154;28;20420;-85
2023/08/02 13:40:19;;;;;;;4.70;2.10;;;;;;;;;;5093820;28;20432;-86
2023/08/02 13:42:45;;;;;;;3.53;1.97;;;;;;;;;;5085994;28;20551;-81
2023/08/02 13:45:11;;;;;;;4.43;2.20;;;;;;;;;;5083065;28;20430;-81
2023/08/02 13:47:37;;;;;;;4.80;1.20;;;;;;;;;;5092926;28;20230;-84
2023/08/02 13:50:03;;;;;;;4.17;2.00;;;;;;;;;;5091822;28;20289;-82
2023/08/02 13:52:29;;;;;;;2.10;1.43;;;;;;;;;;5093138;28;20765;-87
2023/08/02 13:54:55;;;;;;;4.30;2.20;;;;;;;;;;5092996;28;20444;-84
2023/08/02 13:57:21;;;;;;;3.70;2.23;;;;;;;;;;5092766;28;20450;-83
2023/08/02 13:59:47;;;;;;;6.23;1.83;;;;;;;;;;5093138;28;20403;-86
2023/08/02 14:02:13;;;;;;;2.47;1.40;;;;;;;;;;5091345;28;20179;-85
2023/08/02 14:04:39;;;;;;;6.70;2.00;;;;;;;;;;5092555;28;20184;-87
2023/08/02 14:07:05;;;;;;;2.53;1.30;;;;;;;;;;5092996;28;20232;-84
2023/08/02 14:09:31;;;;;;;3.80;1.90;;;;;;;;;;5092933;28;20474;-83
2023/08/02 14:11:57;;;;;;;4.00;1.90;;;;;;;;;;5092777;28;20419;-83
2023/08/02 14:14:23;;;;;;;3.30;2.00;;;;;;;;;;5092951;28;20909;-82
2023/08/02 14:16:49;;;;;;;3.93;1.90;;;;;;;;;;5092946;28;20185;-85
2023/08/02 14:19:15;;;;;;;3.53;1.77;;;;;;;;;;5092641;28;20178;-83
2023/08/02 14:21:43;;;;;;;4.07;1.37;;;;;;;;;;5092910;28;20905;-83
2023/08/02 14:24:09;;;;;;;7.80;2.43;;;;;;;;;;5092948;28;20417;-88
2023/08/02 14:26:35;;;;;;;5.37;1.93;;;;;;;;;;5092926;28;20503;-85
2023/08/02 14:29:01;;;;;;;3.23;2.30;;;;;;;;;;5091986;28;20780;-89
2023/08/02 14:31:27;;;;;;;3.63;2.57;;;;;;;;;;5091633;28;20217;-82
2023/08/02 14:33:53;;;;;;;7.73;3.37;;;;;;;;;;5092893;28;20225;-81
2023/08/02 14:36:19;;;;;;;3.87;2.10;;;;;;;;;;5078410;28;20419;-82
2023/08/02 14:38:45;;;;;;;4.10;2.10;;;;;;;;;;5092537;28;20769;-85
2023/08/02 14:41:11;;;;;;;3.50;2.20;;;;;;;;;;5092351;28;20182;-85